Terminal Aerodrome Forecast
Issued by NWS

Current Version | Previous Version | Text Only | Print | Product List | Glossary Off
Versions: 1 2 3 4 5 6 7 8 9 10 11 12 13 14 15 16 17 18 19 20 21 22 23 24 25 26 27 28 29 30 31 32 33 34 35 36 37 38 39 40

000
FTUS41 KRNK 021728
TAFLWB
TAF
KLWB 021728Z 0218/0318 30004KT P6SM VCSH BKN040
     FM022000 30004KT P6SM VCTS BKN040CB
     FM030000 00000KT P6SM SCT050
     FM030300 00000KT 4SM BR SCT050
     FM030500 00000KT 1/4SM FG BKN001
      TEMPO 0305/0307 1SM BR
     FM031330 VRB02KT P6SM SCT025=

USA.gov is the U.S. government's official web portal to all federal, state and local government web resources and services.